createdAt,value
2018-11-23T00:03:22.848Z,99156.94
2018-11-23T00:08:16.346Z,99164.98
2018-11-23T00:13:10.121Z,99170.82
2018-11-23T00:18:04.115Z,99168.39
2018-11-23T00:22:57.697Z,99169.61
2018-11-23T00:27:52.503Z,99177.80
2018-11-23T00:32:46.427Z,99178.00
2018-11-23T00:37:39.895Z,99178.30
2018-11-23T00:42:33.334Z,99176.49
2018-11-23T00:47:27.273Z,99182.03
2018-11-23T00:52:20.686Z,99189.91
2018-11-23T00:57:15.159Z,99190.06
2018-11-23T01:02:08.843Z,99191.31
2018-11-23T01:07:02.753Z,99196.36
2018-11-23T01:11:56.205Z,99195.78
2018-11-23T01:16:49.712Z,99199.08
2018-11-23T01:21:43.243Z,99196.77
2018-11-23T01:26:37.158Z,99201.98
2018-11-23T01:31:30.690Z,99201.08
2018-11-23T01:36:25.442Z,99202.97
2018-11-23T01:41:18.915Z,99196.24
2018-11-23T01:46:12.627Z,99198.55
2018-11-23T01:51:06.147Z,99198.31
2018-11-23T01:55:59.600Z,99200.53
2018-11-23T02:00:52.958Z,99203.85
2018-11-23T02:05:47.433Z,99199.94
2018-11-23T02:10:40.816Z,99198.25
2018-11-23T02:15:34.212Z,99195.95
2018-11-23T02:20:27.654Z,99195.95
2018-11-23T02:25:21.125Z,99194.67
2018-11-23T02:30:18.441Z,99197.20
2018-11-23T02:35:12.362Z,99191.05
2018-11-23T02:40:06.857Z,99190.91
2018-11-23T02:45:00.386Z,99188.66
2018-11-23T02:49:54.466Z,99187.09
2018-11-23T02:54:47.866Z,99191.88
2018-11-23T02:59:41.277Z,99195.14
2018-11-23T03:04:34.926Z,99200.77
2018-11-23T03:09:28.365Z,99198.93
2018-11-23T03:14:21.927Z,99212.67
2018-11-23T03:19:15.686Z,99218.94
2018-11-23T03:24:09.152Z,99214.95
2018-11-23T03:29:03.408Z,99213.85
2018-11-23T03:33:57.035Z,99224.88
2018-11-23T03:38:50.813Z,99236.49
2018-11-23T03:43:44.423Z,99229.97
2018-11-23T03:48:38.236Z,99228.55
2018-11-23T03:53:32.105Z,99226.97
2018-11-23T03:58:27.723Z,99229.97
2018-11-23T04:03:21.294Z,99242.77
2018-11-23T04:08:14.872Z,99255.44
2018-11-23T04:13:08.275Z,99245.47
2018-11-23T04:18:01.797Z,99252.70
2018-11-23T04:22:55.571Z,99252.64
2018-11-23T04:27:49.055Z,99255.44
2018-11-23T04:32:42.876Z,99253.81
2018-11-23T04:37:36.870Z,99262.98
2018-11-23T04:42:30.867Z,99261.22
2018-11-23T04:47:24.991Z,99263.50
2018-11-23T04:52:18.341Z,99268.81
2018-11-23T04:57:11.935Z,99268.59
2018-11-23T05:02:06.248Z,99275.09
2018-11-23T05:06:59.685Z,99282.45
2018-11-23T05:11:53.203Z,99298.70
2018-11-23T05:16:47.120Z,99306.02
2018-11-23T05:21:40.650Z,99315.28
2018-11-23T05:26:34.055Z,99310.43
2018-11-23T05:31:27.656Z,99314.75
2018-11-23T05:36:21.130Z,99316.94
2018-11-23T05:41:14.601Z,99317.05
2018-11-23T05:46:08.256Z,99323.23
2018-11-23T05:51:01.727Z,99322.64
2018-11-23T05:55:55.550Z,99331.11
2018-11-23T06:00:49.026Z,99340.65
2018-11-23T06:05:42.952Z,99343.78
2018-11-23T06:10:36.381Z,99350.32
2018-11-23T06:15:29.915Z,99352.61
2018-11-23T06:20:24.872Z,99360.36
2018-11-23T06:25:57.568Z,99368.11
2018-11-23T06:30:51.101Z,99371.66
2018-11-23T06:35:44.736Z,99375.20
2018-11-23T06:40:38.410Z,99382.21
2018-11-23T06:45:35.118Z,99384.06
2018-11-23T06:50:28.604Z,99384.90
2018-11-23T06:55:22.190Z,99384.44
2018-11-23T07:00:16.434Z,99389.02
2018-11-23T07:05:10.526Z,99394.39
2018-11-23T07:10:04.262Z,99400.23
2018-11-23T07:14:57.761Z,99403.84
2018-11-23T07:19:56.377Z,99406.31
2018-11-23T07:24:50.054Z,99407.55
2018-11-23T07:29:43.584Z,99413.73
2018-11-23T07:34:37.076Z,99421.09
2018-11-23T07:39:41.506Z,99411.27
2018-11-23T07:44:35.055Z,99418.86
2018-11-23T07:49:28.659Z,99425.41
2018-11-23T07:54:22.718Z,99421.53
2018-11-23T07:59:18.061Z,99414.86
2018-11-23T08:04:11.995Z,99419.45
2018-11-23T08:09:08.733Z,99423.03
2018-11-23T08:14:02.305Z,99429.08
2018-11-23T08:18:56.604Z,99438.53
2018-11-23T08:23:50.318Z,99452.34
2018-11-23T08:28:43.781Z,99453.06
2018-11-23T08:33:37.342Z,99455.52
2018-11-23T08:38:31.333Z,99456.84
2018-11-23T08:43:24.810Z,99468.26
2018-11-23T08:48:18.914Z,99469.23
2018-11-23T08:53:12.508Z,99464.41
2018-11-23T08:58:06.109Z,99460.13
2018-11-23T09:03:00.872Z,99463.61
2018-11-23T09:07:55.193Z,99464.16
2018-11-23T09:12:50.893Z,99469.20
2018-11-23T09:17:45.024Z,99467.16
2018-11-23T09:22:38.516Z,99461.89
2018-11-23T09:27:32.405Z,99461.31
2018-11-23T09:32:26.000Z,99453.41
2018-11-23T09:37:19.994Z,99440.53
2018-11-23T09:42:13.551Z,99441.16
2018-11-23T09:47:10.146Z,99436.22
2018-11-23T09:52:00.640Z,99438.77
2018-11-23T09:56:54.323Z,99437.66
2018-11-23T10:01:47.791Z,99441.11
2018-11-23T10:06:41.520Z,99440.88
2018-11-23T10:11:35.021Z,99443.40
2018-11-23T10:16:28.902Z,99443.69
2018-11-23T10:21:22.401Z,99441.95
2018-11-23T10:26:15.741Z,99435.28
2018-11-23T10:31:09.468Z,99436.23
2018-11-23T10:36:03.001Z,99432.89
2018-11-23T10:40:56.937Z,99430.66
2018-11-23T10:45:50.420Z,99422.84
2018-11-23T10:50:44.007Z,99425.66
2018-11-23T10:55:38.170Z,99423.69
2018-11-23T11:00:37.183Z,99411.39
2018-11-23T11:06:34.424Z,99418.41
2018-11-23T11:11:28.130Z,99414.78
2018-11-23T11:16:21.980Z,99406.67
2018-11-23T11:21:16.188Z,99414.74
2018-11-23T11:26:10.599Z,99415.94
2018-11-23T11:31:05.436Z,99408.92
2018-11-23T11:35:59.307Z,99406.30
2018-11-23T11:40:53.757Z,99399.30
2018-11-23T11:45:47.400Z,99397.50
2018-11-23T11:50:40.969Z,99397.80
2018-11-23T11:55:34.661Z,99399.20
2018-11-23T12:00:28.155Z,99391.20
2018-11-23T12:05:21.713Z,99392.13
2018-11-23T12:10:18.540Z,99392.89
2018-11-23T12:15:12.924Z,99395.67
2018-11-23T12:20:08.983Z,99399.81
2018-11-23T12:25:02.707Z,99401.03
2018-11-23T12:29:56.865Z,99405.27
2018-11-23T12:34:50.650Z,99404.34
2018-11-23T12:39:44.773Z,99406.05
2018-11-23T12:44:39.865Z,99398.67
2018-11-23T12:49:32.706Z,99403.55
2018-11-23T12:54:26.379Z,99400.19
2018-11-23T12:59:20.052Z,99404.41
2018-11-23T13:04:14.074Z,99414.19
2018-11-23T13:09:08.733Z,99406.27
2018-11-23T13:14:02.760Z,99409.03
2018-11-23T13:18:56.249Z,99414.72
2018-11-23T13:23:49.866Z,99424.85
2018-11-23T13:28:43.541Z,99429.37
2018-11-23T13:33:37.129Z,99435.45
2018-11-23T13:38:30.686Z,99430.41
2018-11-23T13:43:26.884Z,99437.63
2018-11-23T13:48:22.210Z,99440.51
2018-11-23T13:53:15.975Z,99434.92
2018-11-23T13:58:10.696Z,99443.94
2018-11-23T14:03:05.043Z,99439.47
2018-11-23T14:07:59.674Z,99449.21
2018-11-23T14:12:53.401Z,99449.15
2018-11-23T14:17:48.902Z,99454.73
2018-11-23T14:22:42.349Z,99451.09
2018-11-23T14:27:36.335Z,99454.45
2018-11-23T14:32:30.167Z,99446.64
2018-11-23T14:37:24.178Z,99443.12
2018-11-23T14:42:18.240Z,99441.95
2018-11-23T14:47:11.781Z,99440.05
2018-11-23T14:52:06.637Z,99449.86
2018-11-23T14:57:01.176Z,99449.98
2018-11-23T15:01:54.851Z,99451.80
2018-11-23T15:06:48.340Z,99453.53
2018-11-23T15:16:43.865Z,99462.02
2018-11-23T15:21:37.345Z,99468.86
2018-11-23T15:26:30.905Z,99473.22
2018-11-23T15:31:25.392Z,99469.52
2018-11-23T15:36:19.006Z,99468.34
2018-11-23T15:41:12.570Z,99481.09
2018-11-23T15:46:06.684Z,99481.22
2018-11-23T15:51:06.279Z,99489.87
2018-11-23T15:55:59.919Z,99492.36
2018-11-23T16:00:53.563Z,99494.45
2018-11-23T16:05:47.252Z,99497.70
2018-11-23T16:10:40.998Z,99496.41
2018-11-23T16:15:34.995Z,99503.52
2018-11-23T16:20:31.148Z,99500.14
2018-11-23T16:25:24.934Z,99502.66
2018-11-23T16:30:20.951Z,99509.11
2018-11-23T16:35:19.156Z,99513.11
2018-11-23T16:40:19.810Z,99512.87
2018-11-23T16:45:18.081Z,99509.18
2018-11-23T16:50:12.482Z,99516.49
2018-11-23T16:55:08.118Z,99510.20
2018-11-23T17:00:09.188Z,99515.55
2018-11-23T17:05:02.851Z,99519.80
2018-11-23T17:09:56.527Z,99525.85
2018-11-23T17:14:50.826Z,99531.39
2018-11-23T17:19:44.533Z,99527.41
2018-11-23T17:24:38.239Z,99528.83
2018-11-23T17:29:34.022Z,99539.76
2018-11-23T17:34:26.660Z,99537.88
2018-11-23T17:39:20.166Z,99550.10
2018-11-23T17:44:14.590Z,99556.92
2018-11-23T17:49:09.009Z,99550.05
2018-11-23T17:54:02.841Z,99543.48
2018-11-23T17:58:56.568Z,99545.12
2018-11-23T18:08:51.449Z,99555.00
2018-11-23T18:13:46.100Z,99554.33
2018-11-23T18:18:39.706Z,99555.42
2018-11-23T18:23:33.190Z,99560.49
2018-11-23T18:28:26.969Z,99565.08
2018-11-23T18:33:20.452Z,99558.95
2018-11-23T18:38:14.136Z,99567.66
2018-11-23T18:43:07.615Z,99570.98
2018-11-23T18:48:01.358Z,99567.77
2018-11-23T18:52:55.190Z,99565.73
2018-11-23T18:57:49.485Z,99561.66
2018-11-23T19:02:44.220Z,99567.16
2018-11-23T19:07:38.195Z,99571.62
2018-11-23T19:12:31.931Z,99575.30
2018-11-23T19:17:25.464Z,99579.28
2018-11-23T19:22:18.914Z,99577.22
2018-11-23T19:27:12.739Z,99580.42
2018-11-23T19:32:06.244Z,99590.36
2018-11-23T19:37:00.167Z,99586.25
2018-11-23T19:41:53.714Z,99587.36
2018-11-23T19:46:48.697Z,99591.82
2018-11-23T19:51:42.210Z,99594.03
2018-11-23T19:56:35.900Z,99593.80
2018-11-23T20:01:29.480Z,99584.66
2018-11-23T20:06:23.340Z,99582.59
2018-11-23T20:11:16.869Z,99588.30
2018-11-23T20:16:10.396Z,99585.89
2018-11-23T20:21:04.461Z,99583.58
2018-11-23T20:25:58.068Z,99578.42
2018-11-23T20:30:52.476Z,99576.90
2018-11-23T20:35:46.119Z,99579.88
2018-11-23T20:40:40.365Z,99578.82
2018-11-23T20:45:35.178Z,99575.94
2018-11-23T20:50:29.361Z,99578.01
2018-11-23T20:55:23.504Z,99584.27
2018-11-23T21:00:18.955Z,99582.37
2018-11-23T21:05:13.910Z,99585.55
2018-11-23T21:10:20.461Z,99580.79
2018-11-23T21:15:28.624Z,99575.39
2018-11-23T21:20:22.227Z,99579.71
2018-11-23T21:25:16.261Z,99583.63
2018-11-23T21:30:19.914Z,99577.53
2018-11-23T21:35:13.837Z,99575.92
2018-11-23T21:40:10.550Z,99580.60
2018-11-23T21:45:04.543Z,99578.07
2018-11-23T21:49:58.188Z,99578.86
2018-11-23T21:54:51.608Z,99578.86
2018-11-23T21:59:45.755Z,99573.74
2018-11-23T22:04:39.450Z,99569.06
2018-11-23T22:09:33.279Z,99572.23
2018-11-23T22:14:26.864Z,99562.86
2018-11-23T22:19:22.526Z,99567.97
2018-11-23T22:24:16.131Z,99566.48
2018-11-23T22:29:09.727Z,99566.80
2018-11-23T22:34:03.332Z,99566.92
2018-11-23T22:38:56.837Z,99562.27
2018-11-23T22:43:50.856Z,99561.89
2018-11-23T22:48:44.815Z,99556.66
2018-11-23T22:53:38.259Z,99561.13
2018-11-23T22:58:32.126Z,99557.02
2018-11-23T23:03:26.132Z,99561.16
2018-11-23T23:08:20.113Z,99562.22
2018-11-23T23:13:13.682Z,99557.34
2018-11-23T23:18:07.132Z,99560.13
2018-11-23T23:23:01.944Z,99556.82
2018-11-23T23:27:56.063Z,99563.41
2018-11-23T23:32:49.658Z,99559.98
2018-11-23T23:37:43.082Z,99559.43
2018-11-23T23:42:36.592Z,99562.48
2018-11-23T23:47:30.096Z,99566.05
2018-11-23T23:52:23.568Z,99563.05
2018-11-23T23:57:17.151Z,99563.31
